Time;durP1;ratioP1;P1;durP2;ratioP2;P2;SDS_P1;SDS_P2;PMS_P1;PMS_P2;Temp;Humidity;BMP_temperature;BMP_pressure;BME280_temperature;BME280_humidity;BME280_pressure;Samples;Min_cycle;Max_cycle;Signal;HPM_P1;HPM_P2
2022/07/11 00:02:17;;;;;;;1999.90;999.90;;;;;;;18.92;55.80;99959.53;8266519;28;20073;-75
2022/07/11 00:06:19;;;;;;;1999.90;999.90;;;;;;;18.82;55.40;99961.56;8279051;28;20535;-75
2022/07/11 00:10:20;;;;;;;1999.90;999.90;;;;;;;18.81;56.90;99962.47;8256408;28;20113;-75
2022/07/11 00:14:22;;;;;;;1999.90;999.90;;;;;;;18.66;57.19;99960.28;8266617;28;20335;-75
2022/07/11 00:18:25;;;;;;;1999.90;999.90;;;;;;;18.45;57.85;99955.59;8272361;28;20541;-75
2022/07/11 00:22:27;;;;;;;1999.90;999.90;;;;;;;18.40;57.72;99948.69;8256547;28;20054;-75
2022/07/11 00:26:29;;;;;;;1999.90;999.90;;;;;;;18.23;58.27;99950.06;8280961;28;20060;-75
2022/07/11 00:30:30;;;;;;;1999.90;999.90;;;;;;;18.16;59.34;99943.25;8241541;28;20144;-75
2022/07/11 00:34:32;;;;;;;1999.90;999.90;;;;;;;18.06;59.40;99940.84;8276278;28;20054;-75
2022/07/11 00:38:33;;;;;;;1999.90;999.90;;;;;;;17.96;60.53;99938.50;8280215;28;20049;-75
2022/07/11 00:42:36;;;;;;;1999.90;999.90;;;;;;;17.91;61.31;99941.22;8259056;28;20141;-75
2022/07/11 00:46:37;;;;;;;;;;;;;;;17.88;61.12;99945.72;8258769;28;20782;-75
2022/07/11 00:50:39;;;;;;;1999.90;999.90;;;;;;;17.82;60.42;99946.75;8260622;28;20384;-75
2022/07/11 00:54:40;;;;;;;1999.90;999.90;;;;;;;17.78;60.72;99943.34;8260786;28;20043;-75
2022/07/11 00:58:42;;;;;;;1999.90;999.90;;;;;;;17.73;61.47;99933.81;8258055;28;20417;-75
2022/07/11 01:02:44;;;;;;;1999.90;999.90;;;;;;;17.64;61.82;99924.38;8275832;28;20080;-75
2022/07/11 01:06:45;;;;;;;1999.90;999.90;;;;;;;17.60;62.22;99921.88;8260207;28;20518;-75
2022/07/11 01:10:47;;;;;;;1999.90;999.90;;;;;;;17.58;61.96;99923.66;8260011;28;20365;-75
2022/07/11 01:14:56;;;;;;;1999.90;999.90;;;;;;;17.50;62.38;99932.59;8272637;28;20378;-75
2022/07/11 01:18:57;;;;;;;1999.90;999.90;;;;;;;17.34;62.84;99936.47;8278547;28;20045;-75
2022/07/11 01:23:17;;;;;;;1999.90;999.90;;;;;;;17.30;63.16;99932.19;8273513;28;20038;-75
2022/07/11 01:27:19;;;;;;;1999.90;999.90;;;;;;;17.27;63.88;99934.91;8274837;28;20052;-75
2022/07/11 01:31:21;;;;;;;1999.90;999.90;;;;;;;17.27;64.44;99926.16;8259227;28;20402;-75
2022/07/11 01:35:23;;;;;;;;;;;;;;;17.22;64.18;99924.47;8245080;28;20568;-75
2022/07/11 01:39:24;;;;;;;1999.90;999.90;;;;;;;17.20;63.77;99928.91;8243554;28;19929;-75
2022/07/11 01:43:26;;;;;;;1999.90;999.90;;;;;;;17.13;64.28;99916.84;8239549;28;20038;-75
2022/07/11 01:47:27;;;;;;;1999.90;999.90;;;;;;;17.11;64.34;99920.41;8239420;28;20129;-75
2022/07/11 01:51:29;;;;;;;1999.90;999.90;;;;;;;17.12;64.49;99924.75;8241327;28;20042;-75
2022/07/11 01:55:31;;;;;;;1999.90;999.90;;;;;;;17.13;64.62;99924.72;8247840;28;20039;-75
2022/07/11 01:59:32;;;;;;;1999.90;999.90;;;;;;;17.15;64.59;99919.41;8242057;28;20350;-75
2022/07/11 02:03:34;;;;;;;1999.90;999.90;;;;;;;17.17;64.74;99928.13;8245690;28;20054;-75
2022/07/11 02:11:55;;;;;;;1999.90;999.90;;;;;;;17.02;65.44;99926.69;8249046;28;20586;-75
2022/07/11 02:15:57;;;;;;;1999.90;999.90;;;;;;;17.02;66.02;99921.44;8246000;28;20047;-75
2022/07/11 02:19:58;;;;;;;1999.90;999.90;;;;;;;16.96;66.43;99918.09;8248893;28;20442;-75
2022/07/11 02:24:00;;;;;;;1999.90;999.90;;;;;;;16.99;66.72;99918.03;8246582;28;20046;-75
2022/07/11 02:28:02;;;;;;;1999.90;999.90;;;;;;;16.95;66.29;99909.38;8249231;28;20125;-75
2022/07/11 02:32:04;;;;;;;1999.90;999.90;;;;;;;17.03;66.44;99917.06;8231880;28;20341;-75
2022/07/11 02:36:07;;;;;;;1999.90;999.90;;;;;;;16.97;65.87;99911.97;8274015;28;20137;-75
2022/07/11 02:40:08;;;;;;;1999.90;999.90;;;;;;;16.97;66.47;99912.81;8260679;28;20042;-75
2022/07/11 02:44:10;;;;;;;1999.90;999.90;;;;;;;16.94;66.22;99912.91;8266808;28;20031;-75
2022/07/11 02:48:12;;;;;;;1999.90;999.90;;;;;;;16.83;66.95;99920.97;8264612;28;20046;-75
2022/07/11 02:52:13;;;;;;;1999.90;999.90;;;;;;;16.77;67.33;99915.03;8259890;28;20222;-78
2022/07/11 02:56:15;;;;;;;1999.90;999.90;;;;;;;16.80;67.05;99920.19;8289061;28;20045;-78
2022/07/11 03:00:17;;;;;;;1999.90;999.90;;;;;;;16.80;67.75;99917.56;8262148;28;20077;-78
2022/07/11 03:04:19;;;;;;;1999.90;999.90;;;;;;;16.77;67.80;99915.88;8277782;28;20303;-78
2022/07/11 03:08:21;;;;;;;1999.90;999.90;;;;;;;16.76;67.26;99913.28;8273471;28;20065;-79
2022/07/11 03:12:22;;;;;;;1999.90;999.90;;;;;;;16.68;67.48;99916.06;8258321;28;20052;-78
2022/07/11 03:16:24;;;;;;;1999.90;999.90;;;;;;;16.66;67.61;99916.94;8280723;28;20049;-79
2022/07/11 03:20:26;;;;;;;1999.90;999.90;;;;;;;16.68;68.15;99912.56;8271828;28;20045;-79
2022/07/11 03:24:27;;;;;;;1999.90;999.90;;;;;;;16.61;67.81;99912.69;8286738;28;20148;-78
2022/07/11 03:28:29;;;;;;;1999.90;999.90;;;;;;;16.50;68.31;99904.16;8272403;28;20131;-78
2022/07/11 03:32:30;;;;;;;1999.90;999.90;;;;;;;16.45;68.48;99905.16;8284536;28;20152;-78
2022/07/11 03:36:32;;;;;;;1999.90;999.90;;;;;;;16.43;69.19;99904.31;8269591;28;20988;-78
2022/07/11 03:40:33;;;;;;;1999.90;999.90;;;;;;;16.31;69.18;99908.91;8273668;28;20049;-79
2022/07/11 03:44:35;;;;;;;1999.90;999.90;;;;;;;16.24;68.99;99907.31;8283995;28;20062;-77
2022/07/11 03:48:36;;;;;;;1999.90;999.90;;;;;;;16.17;69.47;99900.47;8281974;28;20049;-77
2022/07/11 03:52:38;;;;;;;1999.90;999.90;;;;;;;16.12;69.96;99904.03;8269438;28;20049;-77
2022/07/11 03:56:42;;;;;;;1999.90;999.90;;;;;;;16.08;70.14;99903.25;8263731;28;20046;-77
2022/07/11 04:00:43;;;;;;;1999.90;999.90;;;;;;;15.99;70.50;99901.66;8273395;28;20129;-77
2022/07/11 04:04:47;;;;;;;1999.90;999.90;;;;;;;15.83;71.25;99902.84;8264950;28;20290;-78
2022/07/11 04:08:50;;;;;;;1999.90;999.90;;;;;;;15.81;71.24;99906.38;8267213;28;20078;-77
2022/07/11 04:12:54;;;;;;;1999.90;999.90;;;;;;;15.78;71.61;99903.78;8272768;28;20157;-77
2022/07/11 04:16:55;;;;;;;1999.90;999.90;;;;;;;15.75;71.54;99906.47;8285365;28;20493;-78
2022/07/11 04:20:58;;;;;;;1999.90;999.90;;;;;;;15.76;71.60;99905.56;8267679;28;20065;-77
2022/07/11 04:25:09;;;;;;;1999.90;999.90;;;;;;;15.80;71.78;99925.56;8262800;28;20065;-77
2022/07/11 04:29:11;;;;;;;1999.90;999.90;;;;;;;15.84;71.77;99919.41;8265877;28;20038;-77
2022/07/11 04:33:12;;;;;;;1999.90;999.90;;;;;;;15.89;71.72;99915.81;8270126;28;20061;-78
2022/07/11 04:37:14;;;;;;;1999.90;999.90;;;;;;;15.89;71.49;99914.94;8285487;28;20052;-77
2022/07/11 04:41:16;;;;;;;1999.90;999.90;;;;;;;15.96;71.33;99908.69;8264775;28;20133;-77
2022/07/11 04:45:19;;;;;;;1999.90;999.90;;;;;;;16.09;71.86;99904.09;8268216;28;20049;-77
2022/07/11 04:49:21;;;;;;;1999.90;999.90;;;;;;;16.15;71.63;99907.47;8285385;28;20038;-77
2022/07/11 04:53:23;;;;;;;1999.90;999.90;;;;;;;16.35;71.81;99914.97;8268312;28;20042;-77
2022/07/11 04:57:26;;;;;;;1999.90;999.90;;;;;;;16.42;71.04;99908.69;8284775;28;20351;-77
2022/07/11 05:01:28;;;;;;;1999.90;999.90;;;;;;;16.39;71.30;99921.00;8268910;28;20042;-77
2022/07/11 05:05:30;;;;;;;1999.90;999.90;;;;;;;16.47;71.12;99921.72;8267631;28;20080;-77
2022/07/11 05:09:32;;;;;;;1999.90;999.90;;;;;;;16.69;71.22;99928.28;8270801;28;20038;-77
2022/07/11 05:13:34;;;;;;;1999.90;999.90;;;;;;;16.92;71.12;99923.44;8254963;28;20129;-77
2022/07/11 05:17:36;;;;;;;1999.90;999.90;;;;;;;17.12;70.59;99933.47;8264887;28;20137;-77
2022/07/11 05:21:37;;;;;;;1999.90;999.90;;;;;;;17.20;70.35;99934.16;8286981;28;20053;-78
2022/07/11 05:25:39;;;;;;;1999.90;999.90;;;;;;;17.46;69.72;99936.19;8255282;28;20430;-78
2022/07/11 05:29:41;;;;;;;1999.90;999.90;;;;;;;17.76;68.98;99931.97;8282566;28;20072;-78
2022/07/11 05:33:42;;;;;;;1999.90;999.90;;;;;;;18.03;68.27;99938.31;8270736;28;20061;-78
2022/07/11 05:37:44;;;;;;;;;;;;;;;18.35;67.53;99939.22;8272625;28;20394;-78
2022/07/11 05:41:46;;;;;;;1999.90;999.90;;;;;;;18.64;66.73;99944.53;8254699;28;19925;-77
2022/07/11 05:45:48;;;;;;;1999.90;999.90;;;;;;;18.93;65.39;99935.81;8265826;28;20038;-75
2022/07/11 05:49:50;;;;;;;1999.90;999.90;;;;;;;19.20;64.47;99935.88;8265657;28;20346;-75
2022/07/11 05:53:51;;;;;;;1999.90;999.90;;;;;;;19.60;63.08;99935.53;8250390;28;20465;-78
2022/07/11 05:57:53;;;;;;;1999.90;999.90;;;;;;;20.05;61.13;99930.47;8280327;28;20419;-77
2022/07/11 06:01:55;;;;;;;1999.90;999.90;;;;;;;20.62;58.35;99934.63;8282042;28;20387;-76
2022/07/11 06:05:57;;;;;;;1999.90;999.90;;;;;;;21.13;55.91;99930.94;8280620;28;20042;-77
2022/07/11 06:09:58;;;;;;;1999.90;999.90;;;;;;;21.68;53.72;99928.75;8267588;28;20466;-78
2022/07/11 06:14:00;;;;;;;1999.90;999.90;;;;;;;22.12;51.17;99934.00;8286994;28;20124;-76
2022/07/11 06:18:01;;;;;;;1999.90;999.90;;;;;;;22.50;49.75;99930.53;8282703;28;20103;-77
2022/07/11 06:22:03;;;;;;;;;;;;;;;23.12;48.57;99929.44;8282511;28;20047;-77
2022/07/11 06:26:04;;;;;;;1999.90;999.90;;;;;;;23.70;47.88;99942.59;8273379;28;19926;-77
2022/07/11 06:30:07;;;;;;;1999.90;999.90;;;;;;;24.17;45.84;99943.75;8269522;28;20132;-78
2022/07/11 06:34:08;;;;;;;1999.90;999.90;;;;;;;24.47;45.16;99934.25;8249226;28;20049;-77
2022/07/11 06:38:10;;;;;;;1999.90;999.90;;;;;;;24.86;44.06;99941.88;8269357;28;20133;-77
2022/07/11 06:42:12;;;;;;;1999.90;999.90;;;;;;;24.78;43.97;99933.47;8264871;28;20073;-77
2022/07/11 06:46:15;;;;;;;1999.90;999.90;;;;;;;25.11;43.74;99938.75;8279744;28;20149;-77
2022/07/11 06:50:16;;;;;;;1999.90;999.90;;;;;;;25.14;42.76;99940.41;8270069;28;20053;-76
2022/07/11 06:54:18;;;;;;;1999.90;999.90;;;;;;;25.29;43.32;99931.53;8286437;28;20035;-77
2022/07/11 06:58:34;;;;;;;1999.90;999.90;;;;;;;25.35;42.22;99931.22;8268920;28;20042;-77
2022/07/11 07:02:36;;;;;;;1999.90;999.90;;;;;;;25.47;42.26;99932.31;8282113;28;20074;-76
2022/07/11 07:06:37;;;;;;;;;;;;;;;25.64;42.53;99926.00;8286159;28;20125;-76
2022/07/11 07:10:39;;;;;;;1999.90;999.90;;;;;;;25.59;41.86;99926.28;8272061;28;19936;-76
2022/07/11 07:14:41;;;;;;;1999.90;999.90;;;;;;;25.88;41.56;99916.66;8287921;28;20046;-76
2022/07/11 07:18:45;;;;;;;1999.90;999.90;;;;;;;26.00;39.84;99915.91;8270016;28;20132;-76
2022/07/11 07:22:48;;;;;;;1999.90;999.90;;;;;;;26.20;39.97;99926.22;8264933;28;20926;-76
2022/07/11 07:26:49;;;;;;;1999.90;999.90;;;;;;;26.31;39.35;99925.56;8273189;28;20046;-78
2022/07/11 07:30:51;;;;;;;;;;;;;;;26.37;39.15;99922.56;8263620;28;20042;-77
2022/07/11 07:34:52;;;;;;;1999.90;999.90;;;;;;;25.88;39.49;99929.97;8281974;28;19925;-77
2022/07/11 07:38:53;;;;;;;;;;;;;;;25.80;39.91;99927.72;8237903;28;20042;-76
2022/07/11 07:42:56;;;;;;;1999.90;999.90;;;;;;;26.13;39.70;99934.66;8281205;28;19949;-78
2022/07/11 07:46:58;;;;;;;1999.90;999.90;;;;;;;25.57;40.42;99929.03;8262053;28;20046;-78
2022/07/11 07:50:59;;;;;;;1999.90;999.90;;;;;;;25.59;41.06;99923.63;8279290;28;20050;-78
2022/07/11 07:55:01;;;;;;;1999.90;999.90;;;;;;;25.78;40.61;99924.31;8262180;28;20045;-78
2022/07/11 07:59:02;;;;;;;;;;;;;;;26.12;39.65;99915.19;8248092;28;20145;-77
2022/07/11 08:03:06;;;;;;;1999.90;999.90;;;;;;;26.09;40.15;99915.38;8275635;28;19925;-76
2022/07/11 08:07:08;;;;;;;1999.90;999.90;;;;;;;26.05;39.60;99919.16;8259884;28;20038;-76
2022/07/11 08:11:10;;;;;;;1999.90;999.90;;;;;;;25.99;40.29;99918.66;8281058;28;20719;-76
2022/07/11 08:15:31;;;;;;;1999.90;999.90;;;;;;;26.03;40.05;99915.75;8281926;28;20056;-76
2022/07/11 08:19:33;;;;;;;1999.90;999.90;;;;;;;25.87;40.24;99907.81;8273331;28;20426;-77
2022/07/11 08:23:35;;;;;;;1999.90;999.90;;;;;;;26.00;39.72;99918.56;8282136;28;20046;-76
2022/07/11 08:27:37;;;;;;;1999.90;999.90;;;;;;;26.43;38.94;99913.38;8277983;28;20127;-76
2022/07/11 08:31:41;;;;;;;1999.90;999.90;;;;;;;26.74;39.50;99925.63;8269924;28;20053;-76
2022/07/11 08:35:42;;;;;;;1999.90;999.90;;;;;;;26.77;37.87;99918.31;8283277;28;20457;-76
2022/07/11 08:39:44;;;;;;;1999.90;999.90;;;;;;;26.86;38.11;99930.19;8251447;28;20049;-76
2022/07/11 08:43:49;;;;;;;1999.90;999.90;;;;;;;26.89;39.07;99929.13;8284714;28;20048;-76
2022/07/11 08:47:54;;;;;;;1999.90;999.90;;;;;;;26.63;38.96;99923.63;8280558;28;20068;-76
2022/07/11 08:51:55;;;;;;;1999.90;999.90;;;;;;;26.50;39.17;99928.00;8263527;28;20514;-76
2022/07/11 08:55:57;;;;;;;;;;;;;;;26.17;39.04;99920.22;8261723;28;20145;-75
2022/07/11 09:00:00;;;;;;;1999.90;999.90;;;;;;;26.09;40.01;99918.03;8263040;28;20258;-77
2022/07/11 09:04:02;;;;;;;1999.90;999.90;;;;;;;26.17;39.91;99923.75;8261371;28;20053;-77
2022/07/11 09:08:04;;;;;;;1999.90;999.90;;;;;;;26.40;40.15;99917.06;8262024;28;20060;-77
2022/07/11 09:12:15;;;;;;;1999.90;999.90;;;;;;;26.46;39.92;99914.03;8284080;28;20050;-76
2022/07/11 09:16:17;;;;;;;1999.90;999.90;;;;;;;26.34;40.67;99908.53;8262340;28;20522;-77
2022/07/11 09:20:19;;;;;;;1999.90;999.90;;;;;;;26.22;40.43;99911.97;8278397;28;20056;-77
2022/07/11 09:29:10;;;;;;;1999.90;999.90;;;;;;;26.35;40.29;99908.50;8258665;28;20581;-77
2022/07/11 09:33:12;;;;;;;1999.90;999.90;;;;;;;26.65;39.53;99907.56;8261082;28;20042;-77
2022/07/11 09:37:14;;;;;;;1999.90;999.90;;;;;;;27.06;39.25;99905.81;8265001;28;20088;-77
2022/07/11 09:41:15;;;;;;;1999.90;999.90;;;;;;;27.21;39.28;99911.97;8281173;28;20046;-77
2022/07/11 09:45:19;;;;;;;1999.90;999.90;;;;;;;27.11;38.74;99902.88;8264793;28;20124;-77
2022/07/11 09:49:35;;;;;;;1999.90;999.90;;;;;;;27.36;39.07;99904.78;8263058;28;20042;-77
2022/07/11 09:53:53;;;;;;;1999.90;999.90;;;;;;;27.07;39.58;99898.66;8276771;28;20157;-76
2022/07/11 09:57:55;;;;;;;1999.90;999.90;;;;;;;26.91;39.79;99904.09;8276640;28;20046;-76
2022/07/11 10:01:57;;;;;;;;;;;;;;;26.52;39.97;99904.78;8285836;28;20612;-76
2022/07/11 10:06:00;;;;;;;1999.90;999.90;;;;;;;26.34;40.43;99895.22;8271198;28;19935;-76
2022/07/11 10:10:04;;;;;;;1999.90;999.90;;;;;;;26.31;40.81;99893.63;8285285;28;20096;-77
2022/07/11 10:14:07;;;;;;;1999.90;999.90;;;;;;;26.22;41.20;99901.34;8286463;28;20046;-76
2022/07/11 10:18:19;;;;;;;1999.90;999.90;;;;;;;26.12;41.65;99909.00;8270766;28;20060;-76
2022/07/11 10:22:42;;;;;;;1999.90;999.90;;;;;;;26.10;41.28;99898.44;8273798;28;20043;-76
2022/07/11 10:27:06;;;;;;;1999.90;999.90;;;;;;;26.28;41.51;99898.28;8265724;28;20049;-77
2022/07/11 10:31:24;;;;;;;1999.90;999.90;;;;;;;26.41;41.21;99897.47;8287682;28;20149;-76
2022/07/11 10:35:29;;;;;;;1999.90;999.90;;;;;;;26.57;40.62;99886.72;8262079;28;20049;-77
2022/07/11 10:39:35;;;;;;;1999.90;999.90;;;;;;;26.58;40.61;99882.25;8281386;28;20136;-77
2022/07/11 10:43:39;;;;;;;1999.90;999.90;;;;;;;27.00;40.05;99881.38;8248431;28;20080;-76
2022/07/11 10:47:43;;;;;;;1999.90;999.90;;;;;;;27.25;39.12;99886.81;8266694;28;20042;-76
2022/07/11 10:52:05;;;;;;;1999.90;999.90;;;;;;;27.38;39.08;99868.19;8281731;28;20049;-76
2022/07/11 10:56:31;;;;;;;1999.90;999.90;;;;;;;27.44;38.17;99874.94;8282687;28;20029;-76
2022/07/11 11:01:13;;;;;;;1999.90;999.90;;;;;;;27.53;38.32;99877.00;8269733;28;21613;-76
2022/07/11 11:05:43;;;;;;;1999.90;999.90;;;;;;;27.83;37.58;99866.09;8284914;28;20045;-76
2022/07/11 11:09:44;;;;;;;1999.90;999.90;;;;;;;27.82;37.28;99861.72;8283176;28;20041;-76
2022/07/11 11:13:46;;;;;;;;;;;;;;;28.13;37.79;99865.81;8267971;28;20290;-75
2022/07/11 11:17:47;;;;;;;1999.90;999.90;;;;;;;28.17;37.49;99869.97;8251685;28;19963;-76
2022/07/11 11:22:12;;;;;;;1999.90;999.90;;;;;;;28.29;37.63;99880.69;8261802;28;20042;-76
2022/07/11 11:26:19;;;;;;;1999.90;999.90;;;;;;;28.58;36.03;99870.63;8260941;28;20033;-76
2022/07/11 11:30:21;;;;;;;1999.90;999.90;;;;;;;28.57;36.84;99878.75;8260218;28;20068;-76
2022/07/11 11:34:23;;;;;;;1999.90;999.90;;;;;;;28.35;36.77;99873.19;8258865;28;20070;-76
2022/07/11 11:38:25;;;;;;;1999.90;999.90;;;;;;;27.84;38.13;99865.16;8279302;28;20054;-76
2022/07/11 11:42:28;;;;;;;1999.90;999.90;;;;;;;27.43;39.41;99878.56;8263030;28;20053;-76
2022/07/11 11:46:31;;;;;;;1999.90;999.90;;;;;;;27.13;39.55;99862.78;8278466;28;20046;-76
2022/07/11 11:50:33;;;;;;;1999.90;999.90;;;;;;;26.95;39.33;99854.97;8282141;28;20108;-75
2022/07/11 11:54:34;;;;;;;;;;;;;;;26.96;39.31;99846.03;8279945;28;20084;-76
2022/07/11 11:58:36;;;;;;;1999.90;999.90;;;;;;;27.37;39.16;99850.47;8261729;28;20079;-75
2022/07/11 12:02:37;;;;;;;1999.90;999.90;;;;;;;27.40;38.65;99844.94;8286914;28;20884;-75
2022/07/11 12:06:40;;;;;;;;;;;;;;;27.48;39.04;99847.97;8280632;28;20068;-76
2022/07/11 12:10:42;;;;;;;1999.90;999.90;;;;;;;27.93;38.90;99841.34;8259299;28;20517;-76
2022/07/11 12:14:43;;;;;;;;;;;;;;;28.23;37.40;99848.19;8280173;28;21030;-75
2022/07/11 12:18:49;;;;;;;1999.90;999.90;;;;;;;28.54;37.10;99836.19;8281516;28;19965;-76
2022/07/11 12:22:50;;;;;;;1999.90;999.90;;;;;;;28.49;38.57;99844.56;8248377;28;20108;-76
2022/07/11 12:26:52;;;;;;;;;;;;;;;28.24;37.68;99848.09;8255608;28;20052;-76
2022/07/11 12:30:56;;;;;;;1999.90;999.90;;;;;;;27.88;38.77;99847.97;8279157;28;19926;-76
2022/07/11 12:34:58;;;;;;;1999.90;999.90;;;;;;;27.97;39.34;99836.63;8244176;28;20043;-76
2022/07/11 12:39:00;;;;;;;1999.90;999.90;;;;;;;28.29;38.60;99837.09;8243288;28;20042;-75
2022/07/11 12:44:57;;;;;;;1999.90;999.90;;;;;;;28.67;37.55;99830.84;8244216;28;20081;-75
2022/07/11 12:47:25;;;;;;;1999.90;999.90;;;;;;;28.83;36.94;99832.28;8238417;28;20150;-75
2022/07/11 12:51:40;;;;;;;1999.90;999.90;;;;;;;28.98;35.65;99822.31;8238500;28;20455;-76
2022/07/11 12:55:44;;;;;;;1999.90;999.90;;;;;;;29.05;35.71;99828.91;8242915;28;20039;-75
2022/07/11 12:59:46;;;;;;;1999.90;999.90;;;;;;;29.28;35.54;99816.53;8246543;28;20046;-76
2022/07/11 13:03:47;;;;;;;1999.90;999.90;;;;;;;29.40;35.44;99818.25;8249349;28;20129;-73
2022/07/11 13:12:09;;;;;;;1999.90;999.90;;;;;;;28.48;36.46;99826.81;8241117;28;20074;-76
2022/07/11 13:16:11;;;;;;;1999.90;999.90;;;;;;;27.84;36.87;99819.78;8242433;28;20034;-76
2022/07/11 13:20:20;;;;;;;1999.90;999.90;;;;;;;27.99;37.62;99814.22;8244569;28;20049;-76
2022/07/11 13:24:22;;;;;;;1999.90;999.90;;;;;;;28.40;37.36;99806.97;8245530;28;20046;-76
2022/07/11 13:28:23;;;;;;;1999.90;999.90;;;;;;;28.81;35.85;99815.50;8224073;28;20042;-76
2022/07/11 13:32:25;;;;;;;1999.90;999.90;;;;;;;28.95;36.30;99811.00;8243393;28;20047;-76
2022/07/11 13:36:27;;;;;;;1999.90;999.90;;;;;;;28.76;36.26;99815.00;8242386;28;20061;-75
2022/07/11 13:40:29;;;;;;;1999.90;999.90;;;;;;;28.51;36.21;99813.22;8241551;28;20046;-76
2022/07/11 13:44:31;;;;;;;1999.90;999.90;;;;;;;28.84;36.81;99817.94;8228878;28;20041;-75
2022/07/11 13:48:33;;;;;;;1999.90;999.90;;;;;;;29.13;35.44;99818.53;8242150;28;20086;-76
2022/07/11 13:52:35;;;;;;;1999.90;999.90;;;;;;;29.32;35.08;99809.97;8243897;28;20081;-76
2022/07/11 13:56:36;;;;;;;1999.90;999.90;;;;;;;29.48;34.47;99810.56;8247068;28;20617;-76
2022/07/11 14:00:38;;;;;;;1999.90;999.90;;;;;;;29.35;35.04;99816.91;8250849;28;20137;-77
2022/07/11 14:04:41;;;;;;;1999.90;999.90;;;;;;;29.15;35.37;99813.06;8251451;28;20414;-77
2022/07/11 14:08:42;;;;;;;1999.90;999.90;;;;;;;28.97;36.13;99809.06;8242059;28;20046;-77
2022/07/11 14:12:44;;;;;;;1999.90;999.90;;;;;;;29.18;35.60;99796.78;8246810;28;20046;-77
2022/07/11 14:16:45;;;;;;;1999.90;999.90;;;;;;;28.84;35.18;99811.75;8242815;28;20050;-77
2022/07/11 14:20:47;;;;;;;1999.90;999.90;;;;;;;28.33;35.81;99803.84;8232961;28;20452;-77
2022/07/11 14:24:49;;;;;;;1999.90;999.90;;;;;;;28.43;36.84;99801.41;8243769;28;20039;-78
2022/07/11 14:28:51;;;;;;;1999.90;999.90;;;;;;;28.36;36.59;99792.94;8241361;28;20047;-77
2022/07/11 14:32:52;;;;;;;1999.90;999.90;;;;;;;28.03;36.65;99800.66;8243399;28;20046;-77
2022/07/11 14:36:54;;;;;;;1999.90;999.90;;;;;;;28.09;36.69;99794.88;8245280;28;20537;-78
2022/07/11 14:40:56;;;;;;;1999.90;999.90;;;;;;;28.46;37.33;99788.66;8243217;28;20081;-77
2022/07/11 14:44:57;;;;;;;;;;;;;;;28.85;36.57;99789.41;8247443;28;20363;-77
2022/07/11 14:48:59;;;;;;;1999.90;999.90;;;;;;;29.05;35.99;99791.47;8252270;28;19984;-77
2022/07/11 14:53:00;;;;;;;1999.90;999.90;;;;;;;29.13;35.48;99786.44;8251212;28;20149;-77
2022/07/11 14:57:02;;;;;;;;;;;;;;;28.70;34.82;99791.38;8237857;28;20047;-78
2022/07/11 15:01:03;;;;;;;;;;;;;;;28.49;35.68;99788.44;8247427;28;19925;-77
2022/07/11 15:05:05;;;;;;;1999.90;999.90;;;;;;;28.80;35.98;99784.41;8228354;28;20017;-77
2022/07/11 15:18:43;;;;;;;1999.90;999.90;;;;;;;29.05;34.04;99796.81;8236612;28;20415;-76
2022/07/11 15:22:44;;;;;;;1999.90;999.90;;;;;;;29.02;35.52;99796.22;8246536;28;20050;-76
2022/07/11 15:26:47;;;;;;;1999.90;999.90;;;;;;;29.22;35.11;99787.53;8246143;28;20041;-77
2022/07/11 15:30:48;;;;;;;1999.90;999.90;;;;;;;29.44;34.50;99789.44;8239928;28;20056;-78
2022/07/11 15:34:51;;;;;;;1999.90;999.90;;;;;;;29.57;33.89;99787.56;8261456;28;20451;-75
2022/07/11 15:38:52;;;;;;;1999.90;999.90;;;;;;;29.66;33.82;99786.03;8275891;28;20128;-75
2022/07/11 15:42:54;;;;;;;1999.90;999.90;;;;;;;29.67;33.81;99777.03;8260163;28;20088;-77
2022/07/11 15:46:55;;;;;;;1999.90;999.90;;;;;;;29.63;34.62;99783.59;8246789;28;20072;-77
2022/07/11 15:50:57;;;;;;;1999.90;999.90;;;;;;;29.48;33.99;99785.63;8283582;28;20050;-77
2022/07/11 15:54:59;;;;;;;1999.90;999.90;;;;;;;29.52;34.38;99778.19;8283213;28;20513;-77
2022/07/11 15:59:01;;;;;;;1999.90;999.90;;;;;;;29.56;34.42;99782.34;8284218;28;20052;-77
2022/07/11 16:03:02;;;;;;;1999.90;999.90;;;;;;;29.70;33.60;99777.63;8281983;28;20052;-78
2022/07/11 16:07:04;;;;;;;1999.90;999.90;;;;;;;29.62;33.08;99774.69;8265377;28;20129;-77
2022/07/11 16:11:06;;;;;;;1999.90;999.90;;;;;;;29.55;34.24;99780.63;8276078;28;20046;-77
2022/07/11 16:15:08;;;;;;;1999.90;999.90;;;;;;;29.48;34.04;99774.91;8264158;28;20687;-77
2022/07/11 16:19:09;;;;;;;1999.90;999.90;;;;;;;29.52;33.84;99770.19;8264759;28;20061;-77
2022/07/11 16:23:11;;;;;;;1999.90;999.90;;;;;;;29.53;34.32;99778.09;8273269;28;20052;-78
2022/07/11 16:27:12;;;;;;;1999.90;999.90;;;;;;;29.58;34.43;99783.94;8281939;28;20121;-78
2022/07/11 16:31:14;;;;;;;1999.90;999.90;;;;;;;29.48;34.50;99785.63;8272221;28;20069;-77
2022/07/11 16:35:16;;;;;;;1999.90;999.90;;;;;;;29.33;34.50;99790.28;8260342;28;20050;-78
2022/07/11 16:43:38;;;;;;;1999.90;999.90;;;;;;;28.74;35.17;99776.00;8276338;28;20053;-77
2022/07/11 16:47:40;;;;;;;1999.90;999.90;;;;;;;28.40;36.16;99783.78;8259410;28;20054;-77
2022/07/11 16:51:41;;;;;;;;;;;;;;;28.04;36.70;99787.22;8243670;28;20053;-78
2022/07/11 16:55:43;;;;;;;1999.90;999.90;;;;;;;27.76;36.54;99784.75;8255001;28;19987;-78
2022/07/11 16:59:46;;;;;;;1999.90;999.90;;;;;;;27.57;37.51;99793.13;8241731;28;20092;-78
2022/07/11 17:03:49;;;;;;;1999.90;999.90;;;;;;;27.37;38.79;99791.81;8255560;28;20081;-78
2022/07/11 17:12:11;;;;;;;1999.90;999.90;;;;;;;27.00;39.33;99801.41;8278564;28;20706;-77
2022/07/11 17:16:12;;;;;;;1999.90;999.90;;;;;;;26.88;39.93;99803.00;8279393;28;20058;-78
2022/07/11 17:20:14;;;;;;;;;;;;;;;26.72;40.06;99803.16;8273175;28;20053;-77
2022/07/11 17:24:15;;;;;;;1999.90;999.90;;;;;;;26.58;40.15;99797.88;8265089;28;19971;-77
2022/07/11 17:28:19;;;;;;;1999.90;999.90;;;;;;;26.40;40.38;99799.91;8248078;28;20065;-78
2022/07/11 17:32:20;;;;;;;1999.90;999.90;;;;;;;26.11;41.33;99792.81;8249700;28;20776;-77
2022/07/11 17:36:22;;;;;;;;;;;;;;;25.97;41.77;99800.81;8279492;28;20053;-76
2022/07/11 17:40:24;;;;;;;1999.90;999.90;;;;;;;25.77;42.30;99810.00;8265707;28;19925;-76
2022/07/11 17:44:25;;;;;;;1999.90;999.90;;;;;;;25.66;42.49;99799.09;8256609;28;20037;-76
2022/07/11 17:48:27;;;;;;;1999.90;999.90;;;;;;;25.52;42.52;99813.25;8272262;28;20113;-77
2022/07/11 17:52:28;;;;;;;1999.90;999.90;;;;;;;25.45;42.85;99809.22;8275809;28;20125;-77
2022/07/11 17:56:29;;;;;;;1999.90;999.90;;;;;;;25.36;42.96;99812.44;8257226;28;20048;-77
2022/07/11 18:00:31;;;;;;;1999.90;999.90;;;;;;;25.23;43.32;99815.78;8257900;28;20042;-77
2022/07/11 18:04:33;;;;;;;1999.90;999.90;;;;;;;25.12;43.82;99820.84;8278598;28;20129;-76
2022/07/11 18:08:34;;;;;;;1999.90;999.90;;;;;;;25.00;44.09;99822.44;8277860;28;20820;-78
2022/07/11 18:12:36;;;;;;;1999.90;999.90;;;;;;;24.91;44.09;99825.56;8257918;28;20053;-76
2022/07/11 18:16:38;;;;;;;1999.90;999.90;;;;;;;24.82;44.25;99830.56;8252065;28;20054;-76
2022/07/11 18:20:40;;;;;;;1999.90;999.90;;;;;;;24.73;44.19;99821.28;8260140;28;20713;-77
2022/07/11 18:24:48;;;;;;;1999.90;999.90;;;;;;;24.61;45.18;99817.53;8255225;28;20050;-76
2022/07/11 18:28:50;;;;;;;1999.90;999.90;;;;;;;24.44;45.41;99816.75;8250784;28;20157;-76
2022/07/11 18:32:51;;;;;;;1999.90;999.90;;;;;;;24.33;45.55;99823.47;8261562;28;20064;-77
2022/07/11 18:36:53;;;;;;;1999.90;999.90;;;;;;;24.22;46.26;99831.13;8263451;28;20049;-76
2022/07/11 18:41:13;;;;;;;1999.90;999.90;;;;;;;24.08;47.37;99829.22;8283184;28;20058;-77
2022/07/11 18:45:14;;;;;;;1999.90;999.90;;;;;;;23.94;49.41;99826.44;8274106;28;20125;-77